Time;durP1;ratioP1;P1;durP2;ratioP2;P2;SDS_P1;SDS_P2;PMS_P1;PMS_P2;Temp;Humidity;BMP_temperature;BMP_pressure;BME280_temperature;BME280_humidity;BME280_pressure;Samples;Min_cycle;Max_cycle;Signal;HPM_P1;HPM_P2
2021/07/01 00:01:02;;;;;;;12.82;9.15;;;;;;;22.48;74.88;99176.79;1664058;86;21550;-76
2021/07/01 00:03:29;;;;;;;11.78;8.53;;;;;;;22.52;74.73;99168.11;1664851;84;21112;-77
2021/07/01 00:05:56;;;;;;;12.85;9.25;;;;;;;22.58;74.28;99155.78;1685619;84;21024;-77
2021/07/01 00:08:24;;;;;;;18.37;10.18;;;;;;;22.49;74.79;99161.35;1665624;84;21577;-76
2021/07/01 00:10:51;;;;;;;13.65;10.82;;;;;;;22.36;75.96;99161.12;1668859;84;21523;-77
2021/07/01 00:13:18;;;;;;;15.53;9.33;;;;;;;22.26;76.63;99163.49;1680639;84;21596;-78
2021/07/01 00:15:45;;;;;;;13.35;9.15;;;;;;;22.17;76.80;99157.55;1684805;84;21102;-76
2021/07/01 00:18:12;;;;;;;22.73;10.55;;;;;;;22.10;77.03;99164.73;1665286;84;21022;-77
2021/07/01 00:20:41;;;;;;;15.88;9.85;;;;;;;22.01;77.51;99165.40;1679682;83;21008;-77
2021/07/01 00:23:07;;;;;;;12.50;8.55;;;;;;;22.04;76.98;99164.71;1695890;83;20989;-75
2021/07/01 00:25:34;;;;;;;13.40;8.83;;;;;;;22.08;76.58;99151.94;1689639;85;21065;-76
2021/07/01 00:28:02;;;;;;;12.15;9.83;;;;;;;22.14;76.30;99143.17;1689770;84;21156;-75
2021/07/01 00:30:30;;;;;;;16.35;10.68;;;;;;;22.18;76.47;99135.88;1690836;84;21052;-75
2021/07/01 00:32:57;;;;;;;11.33;10.10;;;;;;;22.14;76.95;99148.66;1691128;84;21394;-76
2021/07/01 00:35:24;;;;;;;14.45;8.85;;;;;;;22.09;77.59;99146.13;1691782;84;20992;-74
2021/07/01 00:37:51;;;;;;;18.17;10.82;;;;;;;22.03;77.70;99139.83;1691954;83;20995;-76
2021/07/01 00:40:18;;;;;;;12.95;10.00;;;;;;;21.98;77.71;99136.73;1690772;84;21376;-76
2021/07/01 00:42:45;;;;;;;24.70;10.03;;;;;;;21.95;77.96;99129.20;1691086;84;21561;-76
2021/07/01 00:45:12;;;;;;;19.17;10.13;;;;;;;21.93;77.92;99130.10;1691176;84;20949;-75
2021/07/01 00:47:39;;;;;;;27.17;9.50;;;;;;;21.93;77.67;99129.27;1666211;84;21057;-77
2021/07/01 00:50:09;;;;;;;31.27;11.18;;;;;;;21.94;77.57;99124.06;1672401;84;21094;-75
2021/07/01 00:52:37;;;;;;;19.87;10.13;;;;;;;21.95;77.59;99130.58;1691299;84;21826;-76
2021/07/01 00:55:07;;;;;;;22.52;10.80;;;;;;;21.97;77.62;99135.70;1691085;84;21181;-75
2021/07/01 00:57:35;;;;;;;21.42;10.05;;;;;;;21.95;77.63;99123.73;1691207;84;21021;-76
2021/07/01 01:00:09;;;;;;;19.27;11.80;;;;;;;21.90;77.74;99121.74;1689544;84;21109;-75
2021/07/01 01:02:34;;;;;;;33.27;10.93;;;;;;;21.84;77.89;99116.23;1690538;84;21052;-76
2021/07/01 01:05:01;;;;;;;34.53;11.68;;;;;;;21.77;77.90;99110.53;1690992;84;21637;-75
2021/07/01 01:07:28;;;;;;;26.05;11.57;;;;;;;21.72;78.07;99118.39;1691041;84;21097;-75
2021/07/01 01:09:55;;;;;;;21.48;10.23;;;;;;;21.69;78.25;99122.59;1689699;84;21577;-75
2021/07/01 01:12:22;;;;;;;17.60;10.88;;;;;;;21.71;78.38;99121.70;1689125;83;21068;-78
2021/07/01 01:14:49;;;;;;;26.10;12.05;;;;;;;21.58;79.16;99120.62;1690824;84;21072;-76
2021/07/01 01:17:16;;;;;;;20.50;11.22;;;;;;;21.40;79.99;99110.38;1691536;84;22373;-77
2021/07/01 01:19:43;;;;;;;13.15;10.20;;;;;;;21.21;80.97;99116.33;1692054;84;20958;-76
2021/07/01 01:22:10;;;;;;;11.83;9.95;;;;;;;21.15;80.96;99112.78;1682679;84;21077;-77
2021/07/01 01:24:38;;;;;;;13.00;9.53;;;;;;;21.19;80.76;99109.05;1682409;85;21017;-77
2021/07/01 01:27:05;;;;;;;16.70;8.68;;;;;;;21.22;80.64;99100.16;1682680;85;21073;-76
2021/07/01 01:29:33;;;;;;;15.25;10.23;;;;;;;21.23;80.69;99094.93;1681405;85;21229;-77
2021/07/01 01:32:03;;;;;;;37.30;13.35;;;;;;;21.19;80.73;99093.20;1682360;85;21093;-76
2021/07/01 01:34:29;;;;;;;19.02;12.18;;;;;;;21.16;80.79;99078.24;1682262;84;21013;-77
2021/07/01 01:36:56;;;;;;;19.70;10.48;;;;;;;21.13;80.90;99085.76;1682714;85;21507;-78
2021/07/01 01:39:23;;;;;;;21.35;10.60;;;;;;;21.10;80.96;99081.50;1681888;85;21030;-76
2021/07/01 01:41:54;;;;;;;12.98;10.00;;;;;;;20.99;81.62;99080.29;1679534;85;21250;-76
2021/07/01 01:44:22;;;;;;;12.50;9.13;;;;;;;20.82;82.35;99073.80;1654080;85;21009;-76
2021/07/01 01:46:48;;;;;;;13.03;7.70;;;;;;;20.70;83.37;99079.20;1681372;85;21672;-75
2021/07/01 01:49:18;;;;;;;10.00;8.28;;;;;;;20.70;82.92;99079.20;1681477;84;21061;-76
2021/07/01 01:51:45;;;;;;;10.98;8.45;;;;;;;20.72;82.76;99078.29;1681638;85;21033;-78
2021/07/01 01:54:11;;;;;;;12.73;8.55;;;;;;;20.73;82.86;99066.23;1682002;85;23353;-77
2021/07/01 01:56:46;;;;;;;10.35;9.20;;;;;;;20.72;82.88;99053.70;1682470;85;20996;-76
2021/07/01 01:59:16;;;;;;;13.72;10.20;;;;;;;20.72;82.88;99053.70;1682629;85;20997;-76
2021/07/01 02:01:53;;;;;;;12.23;10.45;;;;;;;20.86;82.66;99072.00;1673512;85;21051;-76
2021/07/01 02:04:22;;;;;;;15.98;9.68;;;;;;;20.86;82.66;99072.00;1680811;85;21045;-76
2021/07/01 02:06:55;;;;;;;13.68;10.00;;;;;;;20.83;83.10;99074.61;1682729;85;21154;-75
2021/07/01 02:09:25;;;;;;;11.45;9.68;;;;;;;20.77;83.88;99059.53;1682465;85;21021;-75
2021/07/01 02:11:56;;;;;;;10.93;8.83;;;;;;;20.77;83.88;99059.53;1681192;84;21542;-75
2021/07/01 02:14:23;;;;;;;10.68;8.63;;;;;;;20.79;83.36;99059.45;1654872;85;21066;-77
2021/07/01 02:16:52;;;;;;;10.53;8.33;;;;;;;20.85;82.86;99054.59;1679901;85;21581;-76
2021/07/01 02:19:21;;;;;;;10.98;8.73;;;;;;;20.88;82.99;99059.38;1682327;85;21138;-77
2021/07/01 02:21:48;;;;;;;11.60;8.33;;;;;;;20.89;82.92;99055.52;1691078;84;21122;-76
2021/07/01 02:24:17;;;;;;;13.98;8.30;;;;;;;20.93;83.11;99057.01;1697750;84;21004;-77
2021/07/01 02:26:44;;;;;;;11.25;9.40;;;;;;;21.01;82.92;99067.06;1698279;84;21052;-76
2021/07/01 02:29:11;;;;;;;18.02;10.70;;;;;;;21.09;82.49;99064.86;1698084;84;21052;-76
2021/07/01 02:31:54;;;;;;;;;;;;;;;21.03;82.34;99053.88;1698975;84;21173;-77
2021/07/01 02:34:22;;;;;;;30.25;11.90;;;;;;;20.81;83.41;99042.73;1697545;83;20138;-75
2021/07/01 02:36:53;;;;;;;20.97;11.40;;;;;;;20.55;85.02;99039.36;1668441;83;20993;-76
2021/07/01 02:39:24;;;;;;;26.90;9.50;;;;;;;20.55;85.02;99039.36;1633525;84;21039;-74
2021/07/01 02:41:52;;;;;;;17.70;10.68;;;;;;;20.56;84.85;99026.73;1697152;84;21084;-76
2021/07/01 02:44:20;;;;;;;15.05;8.08;;;;;;;20.60;84.69;99033.70;1699661;84;21966;-75
2021/07/01 02:46:53;;;;;;;14.33;9.48;;;;;;;20.62;84.83;99032.25;1650542;84;21021;-75
2021/07/01 02:49:21;;;;;;;21.00;10.35;;;;;;;20.66;84.62;99029.08;1697043;84;21000;-74
2021/07/01 02:51:54;;;;;;;12.65;11.33;;;;;;;20.66;84.61;99029.08;1698854;83;21518;-75
2021/07/01 02:54:21;;;;;;;14.25;10.10;;;;;;;20.63;84.79;99020.73;1697532;84;21081;-75
2021/07/01 02:56:50;;;;;;;13.13;10.80;;;;;;;20.61;85.13;99018.91;1693947;84;21159;-75
2021/07/01 02:59:19;;;;;;;14.07;11.68;;;;;;;20.55;85.61;99015.57;1697562;84;21518;-76
2021/07/01 03:01:51;;;;;;;11.22;10.10;;;;;;;20.48;86.17;99022.70;1683702;84;21021;-74
2021/07/01 03:04:28;;;;;;;16.37;9.78;;;;;;;20.56;85.58;99012.27;1696744;83;21092;-75
2021/07/01 03:06:55;;;;;;;13.88;9.20;;;;;;;20.69;85.47;99018.04;1697126;84;21060;-75
2021/07/01 03:09:22;;;;;;;10.05;8.40;;;;;;;20.69;85.47;99018.04;1697350;83;21185;-76
2021/07/01 03:11:51;;;;;;;14.40;9.85;;;;;;;20.75;85.39;99027.08;1696890;84;20954;-75
2021/07/01 03:14:17;;;;;;;13.98;10.88;;;;;;;20.79;85.43;99027.21;1696909;84;21001;-74
2021/07/01 03:16:46;;;;;;;17.07;9.75;;;;;;;20.89;85.26;99026.81;1698175;84;21040;-76
2021/07/01 03:19:14;;;;;;;18.20;9.35;;;;;;;21.12;84.31;99035.46;1697186;84;21577;-74
2021/07/01 03:22:00;;;;;;;13.03;9.90;;;;;;;21.12;84.31;99035.46;1684862;84;21915;-74
2021/07/01 03:24:28;;;;;;;20.48;9.00;;;;;;;21.21;84.04;99041.12;1678469;85;21034;-74
2021/07/01 03:26:59;;;;;;;24.23;11.00;;;;;;;21.30;83.70;99040.47;1668394;85;21048;-75
2021/07/01 03:29:27;;;;;;;22.07;11.65;;;;;;;21.31;83.46;99049.47;1677800;85;21002;-75
2021/07/01 03:31:54;;;;;;;19.75;10.60;;;;;;;21.17;84.15;99047.59;1677237;85;21038;-74
2021/07/01 03:34:22;;;;;;;17.92;9.28;;;;;;;21.07;84.40;99055.61;1677419;85;21112;-76
2021/07/01 03:36:49;;;;;;;16.87;9.93;;;;;;;21.07;84.34;99056.17;1677081;85;21536;-75
2021/07/01 03:39:31;;;;;;;17.60;9.60;;;;;;;21.14;84.27;99071.52;1663222;85;21565;-74
2021/07/01 03:42:00;;;;;;;11.03;8.60;;;;;;;21.22;84.17;99075.55;1678088;84;21034;-77
2021/07/01 03:44:27;;;;;;;18.40;9.68;;;;;;;21.30;84.03;99084.23;1677757;85;21077;-74
2021/07/01 03:46:54;;;;;;;14.15;8.68;;;;;;;21.44;84.26;99096.85;1678643;85;21810;-75
2021/07/01 03:49:22;;;;;;;11.20;8.40;;;;;;;21.59;83.39;99101.11;1678730;85;21054;-77
2021/07/01 03:52:05;;;;;;;14.03;9.40;;;;;;;21.72;82.81;99111.55;1678894;85;21519;-76
2021/07/01 03:54:33;;;;;;;9.90;8.70;;;;;;;21.80;82.36;99116.13;1677853;85;21037;-76
2021/07/01 03:57:03;;;;;;;10.93;9.48;;;;;;;21.90;81.90;99122.55;1678763;85;21038;-82
2021/07/01 03:59:33;;;;;;;12.28;10.53;;;;;;;21.97;81.78;99134.33;1677120;85;23326;-75
2021/07/01 04:02:18;;;;;;;10.58;9.68;;;;;;;21.94;81.92;99124.86;1678482;85;21021;-77
2021/07/01 04:04:44;;;;;;;10.05;8.83;;;;;;;21.93;81.86;99127.36;1677928;85;21576;-75
2021/07/01 04:07:12;;;;;;;14.07;11.73;;;;;;;21.96;81.65;99131.38;1679852;85;20957;-74
2021/07/01 04:09:41;;;;;;;15.65;9.78;;;;;;;21.98;81.62;99137.30;1679288;85;21546;-75
2021/07/01 04:12:26;;;;;;;11.80;9.83;;;;;;;22.03;81.62;99135.16;1678734;85;21227;-76
2021/07/01 04:15:11;;;;;;;13.72;11.40;;;;;;;22.12;81.47;99147.37;1678545;85;21414;-76
2021/07/01 04:17:41;;;;;;;14.03;12.10;;;;;;;22.14;81.49;99154.13;1676580;85;21061;-76
2021/07/01 04:20:18;;;;;;;13.58;11.53;;;;;;;22.17;81.41;99149.33;1675517;85;21058;-75
2021/07/01 04:23:04;;;;;;;11.60;10.48;;;;;;;22.24;81.40;99143.88;1677489;84;21042;-76
2021/07/01 04:25:51;;;;;;;16.10;13.75;;;;;;;22.31;81.29;99149.57;1677679;85;21156;-75
2021/07/01 04:28:18;;;;;;;14.03;12.58;;;;;;;22.25;81.23;99150.95;1678632;85;21021;-76
2021/07/01 04:30:44;;;;;;;15.65;13.13;;;;;;;22.16;81.78;99153.77;1678722;85;20958;-76
2021/07/01 04:33:16;;;;;;;15.03;10.63;;;;;;;22.15;81.92;99151.62;1656989;84;21538;-78
2021/07/01 04:35:48;;;;;;;18.85;13.62;;;;;;;22.23;81.63;99136.78;1698122;84;21005;-76
2021/07/01 04:38:12;;;;;;;15.23;13.32;;;;;;;22.30;81.44;99134.30;1677236;85;22064;-77
2021/07/01 04:40:38;;;;;;;15.08;10.80;;;;;;;22.39;81.36;99137.16;1677166;85;21546;-76
2021/07/01 04:43:05;;;;;;;13.08;11.48;;;;;;;22.46;80.84;99139.32;1677219;85;21054;-77
2021/07/01 04:45:32;;;;;;;17.42;13.28;;;;;;;22.54;80.59;99145.28;1677543;85;21632;-76
2021/07/01 04:48:00;;;;;;;19.77;13.55;;;;;;;22.63;80.12;99135.57;1678792;85;21097;-76
2021/07/01 04:50:27;;;;;;;18.02;13.22;;;;;;;22.70;79.83;99147.58;1678995;85;21218;-75
2021/07/01 04:53:03;;;;;;;13.78;12.37;;;;;;;22.80;79.32;99149.86;1636357;85;21088;-76
2021/07/01 04:55:47;;;;;;;15.53;13.90;;;;;;;22.88;78.78;99156.36;1677704;85;21006;-76
2021/07/01 04:58:22;;;;;;;15.78;14.20;;;;;;;22.79;78.56;99145.52;1667266;85;21077;-75
2021/07/01 05:00:51;;;;;;;21.48;15.05;;;;;;;22.68;79.05;99158.08;1678342;85;21596;-76
2021/07/01 05:03:36;;;;;;;17.50;15.68;;;;;;;22.64;79.39;99149.52;1679050;85;21550;-75
2021/07/01 05:06:04;;;;;;;16.82;14.40;;;;;;;22.66;79.08;99154.86;1678554;85;21089;-76
2021/07/01 05:08:31;;;;;;;13.85;12.40;;;;;;;22.71;79.14;99164.83;1653246;85;20999;-75
2021/07/01 05:10:58;;;;;;;14.38;13.13;;;;;;;22.74;79.06;99177.28;1678673;85;20998;-75
2021/07/01 05:13:25;;;;;;;15.40;13.20;;;;;;;22.77;79.10;99174.44;1679123;85;21069;-76
2021/07/01 05:15:53;;;;;;;20.32;18.20;;;;;;;22.81;78.93;99174.78;1651166;87;21202;-75
2021/07/01 05:18:22;;;;;;;19.02;16.67;;;;;;;22.87;78.79;99186.31;1651205;87;21565;-75
2021/07/01 05:21:07;;;;;;;19.98;15.95;;;;;;;22.95;78.58;99188.14;1675781;85;21542;-77
2021/07/01 05:23:52;;;;;;;17.02;15.28;;;;;;;23.00;78.25;99185.16;1678182;85;21012;-76
2021/07/01 05:26:28;;;;;;;21.93;18.60;;;;;;;23.02;78.21;99189.75;1678764;85;21081;-79
2021/07/01 05:29:13;;;;;;;20.45;18.23;;;;;;;22.91;78.82;99189.41;1678768;85;21754;-77
2021/07/01 05:31:59;;;;;;;23.50;17.00;;;;;;;22.78;79.43;99185.04;1678349;85;20948;-74
2021/07/01 05:34:40;;;;;;;20.52;16.37;;;;;;;22.77;79.30;99197.74;1653327;85;22134;-76
2021/07/01 05:37:07;;;;;;;26.35;16.48;;;;;;;22.75;79.88;99196.70;1677326;85;21022;-76
2021/07/01 05:39:35;;;;;;;17.37;14.10;;;;;;;22.78;80.33;99198.75;1677558;85;21022;-77
2021/07/01 05:42:04;;;;;;;19.85;15.65;;;;;;;22.87;80.46;99208.26;1677030;85;22277;-76
2021/07/01 05:44:32;;;;;;;21.80;15.70;;;;;;;22.91;80.57;99205.05;1677411;85;21538;-76
2021/07/01 05:46:59;;;;;;;17.17;15.08;;;;;;;22.97;80.55;99206.43;1677145;85;21653;-77
2021/07/01 05:49:26;;;;;;;18.27;15.43;;;;;;;22.99;80.46;99198.64;1677359;85;21006;-76
2021/07/01 05:51:56;;;;;;;15.68;14.28;;;;;;;23.01;80.45;99199.91;1677365;85;21070;-77
2021/07/01 05:56:58;;;;;;;24.50;18.00;;;;;;;23.09;80.25;99205.61;1677435;85;21029;-77
2021/07/01 05:59:26;;;;;;;22.30;20.23;;;;;;;23.15;80.14;99208.36;1678733;85;20998;-77
2021/07/01 06:01:52;;;;;;;21.17;19.07;;;;;;;23.23;79.81;99219.20;1678361;85;21549;-74
2021/07/01 06:04:20;;;;;;;24.60;22.07;;;;;;;23.28;79.56;99214.05;1677880;85;21125;-73
2021/07/01 06:07:08;;;;;;;19.73;17.75;;;;;;;23.25;79.74;99210.06;1672120;85;21996;-73
2021/07/01 06:09:35;;;;;;;20.48;17.92;;;;;;;23.27;79.94;99212.44;1677272;84;21499;-73
2021/07/01 06:12:03;;;;;;;18.23;16.57;;;;;;;23.27;79.94;99206.38;1677279;85;21006;-73
2021/07/01 06:14:30;;;;;;;19.07;17.17;;;;;;;23.23;80.25;99208.79;1678216;85;21006;-76
2021/07/01 06:16:59;;;;;;;18.10;16.23;;;;;;;23.21;80.36;99210.53;1677980;85;21090;-78
2021/07/01 06:19:26;;;;;;;19.62;17.73;;;;;;;23.17;80.71;99210.97;1678786;85;21203;-77
2021/07/01 06:21:53;;;;;;;17.85;15.98;;;;;;;23.19;80.83;99205.14;1680335;84;21093;-78
2021/07/01 06:24:21;;;;;;;17.05;15.45;;;;;;;23.18;80.84;99202.97;1698252;84;21552;-75
2021/07/01 06:26:48;;;;;;;20.08;18.07;;;;;;;23.23;80.84;99199.19;1698443;83;21570;-75
2021/07/01 06:29:16;;;;;;;18.10;16.20;;;;;;;23.22;80.39;99201.13;1698341;84;21038;-75
2021/07/01 06:31:43;;;;;;;19.90;15.50;;;;;;;23.17;80.55;99201.36;1697613;84;23251;-77
2021/07/01 06:34:10;;;;;;;20.02;16.67;;;;;;;23.21;80.69;99207.78;1696703;84;20976;-74
2021/07/01 06:36:40;;;;;;;15.30;13.58;;;;;;;23.28;80.54;99207.19;1696732;84;21569;-78
2021/07/01 06:39:25;;;;;;;20.50;16.32;;;;;;;23.33;80.30;99198.72;1696950;84;21532;-75
2021/07/01 06:42:11;;;;;;;16.90;15.20;;;;;;;23.35;79.84;99185.46;1697663;84;21037;-74
2021/07/01 06:44:56;;;;;;;20.60;17.05;;;;;;;23.38;79.44;99191.05;1698420;84;21149;-76
2021/07/01 06:47:49;;;;;;;21.33;15.13;;;;;;;23.36;79.16;99191.15;1698265;84;20949;-76
2021/07/01 06:50:35;;;;;;;19.90;13.43;;;;;;;23.37;79.05;99197.67;1698288;84;20953;-76
2021/07/01 06:53:21;;;;;;;16.90;13.83;;;;;;;23.41;78.93;99206.81;1677901;84;21065;-75
2021/07/01 06:56:06;;;;;;;15.58;13.88;;;;;;;23.48;78.71;99206.84;1693948;84;21014;-74
2021/07/01 06:58:37;;;;;;;13.30;12.00;;;;;;;23.59;77.89;99202.47;1674451;84;21220;-76
2021/07/01 07:01:03;;;;;;;14.90;13.35;;;;;;;23.69;77.65;99200.00;1698621;84;21131;-75
2021/07/01 07:03:31;;;;;;;16.40;11.97;;;;;;;23.75;77.46;99197.25;1698270;84;21027;-74
2021/07/01 07:06:00;;;;;;;15.23;12.00;;;;;;;23.83;77.12;99204.56;1698214;84;21116;-75
2021/07/01 07:08:26;;;;;;;13.10;11.73;;;;;;;23.84;76.83;99200.64;1698224;84;21073;-75
2021/07/01 07:10:53;;;;;;;16.48;12.63;;;;;;;23.87;76.59;99198.59;1698257;84;21109;-75
2021/07/01 07:13:24;;;;;;;13.45;12.05;;;;;;;23.91;76.99;99200.05;1698380;84;21016;-74
2021/07/01 07:15:50;;;;;;;12.37;11.12;;;;;;;24.05;76.53;99195.52;1698215;84;21057;-74
2021/07/01 07:18:30;;;;;;;12.18;11.03;;;;;;;24.13;76.13;99197.30;1698113;84;21092;-75
2021/07/01 07:21:13;;;;;;;15.03;13.32;;;;;;;24.24;75.55;99191.55;1698729;84;21092;-77
2021/07/01 07:23:38;;;;;;;14.98;12.25;;;;;;;24.28;74.94;99189.12;1697437;84;21174;-74
2021/07/01 07:26:07;;;;;;;14.47;12.82;;;;;;;24.35;74.62;99183.59;1698237;84;21008;-76
2021/07/01 07:28:39;;;;;;;13.00;11.85;;;;;;;24.33;75.04;99180.61;1698572;83;21021;-75
2021/07/01 07:31:04;;;;;;;14.05;11.73;;;;;;;24.40;74.85;99181.96;1697626;84;21687;-74
2021/07/01 07:33:31;;;;;;;12.23;11.00;;;;;;;24.52;74.59;99175.79;1698427;84;21000;-74
2021/07/01 07:35:58;;;;;;;17.45;13.45;;;;;;;24.60;74.14;99179.53;1698369;84;21900;-74
2021/07/01 07:38:26;;;;;;;14.93;13.48;;;;;;;24.69;73.88;99177.39;1698302;84;21025;-73
2021/07/01 07:40:53;;;;;;;13.93;12.63;;;;;;;24.71;73.49;99166.25;1698796;84;21005;-73
2021/07/01 07:43:25;;;;;;;14.68;12.53;;;;;;;24.75;73.14;99171.82;1699126;84;21073;-73
2021/07/01 07:45:53;;;;;;;12.45;11.20;;;;;;;24.78;73.34;99168.38;1698725;84;21073;-73
2021/07/01 07:48:20;;;;;;;15.15;12.03;;;;;;;24.86;73.22;99167.95;1698456;84;21138;-75
2021/07/01 07:50:53;;;;;;;13.78;12.50;;;;;;;24.92;73.51;99163.24;1698374;84;20988;-74
2021/07/01 07:53:30;;;;;;;12.68;11.48;;;;;;;25.01;73.78;99164.41;1698413;84;21400;-75
2021/07/01 07:56:09;;;;;;;14.90;13.40;;;;;;;25.17;73.33;99165.98;1698560;84;20937;-74
2021/07/01 07:58:41;;;;;;;14.15;12.75;;;;;;;25.31;72.79;99168.25;1698381;84;21008;-77
2021/07/01 08:01:09;;;;;;;19.85;12.53;;;;;;;25.39;72.38;99164.48;1698898;84;21081;-75
2021/07/01 08:03:38;;;;;;;14.68;11.53;;;;;;;25.48;72.03;99166.44;1698402;84;21534;-74
2021/07/01 08:06:05;;;;;;;11.88;10.88;;;;;;;25.53;70.93;99170.87;1698755;84;20992;-74
2021/07/01 08:08:37;;;;;;;13.83;12.47;;;;;;;25.52;70.18;99157.67;1698325;84;21048;-76
2021/07/01 08:11:09;;;;;;;16.65;11.83;;;;;;;25.53;69.99;99155.72;1675431;84;21055;-73
2021/07/01 08:13:37;;;;;;;12.53;11.33;;;;;;;25.52;69.78;99152.16;1698739;84;21212;-74
2021/07/01 08:16:06;;;;;;;11.70;9.80;;;;;;;25.56;69.00;99143.42;1698319;84;21116;-76
2021/07/01 08:18:45;;;;;;;12.85;10.13;;;;;;;25.63;68.05;99152.42;1698300;84;21155;-73
2021/07/01 08:21:11;;;;;;;11.50;9.43;;;;;;;25.69;67.14;99146.84;1697618;84;21301;-75
2021/07/01 08:23:39;;;;;;;10.80;9.70;;;;;;;25.72;67.27;99146.11;1689902;84;21045;-74
2021/07/01 08:26:06;;;;;;;15.28;10.13;;;;;;;25.77;66.65;99145.81;1683077;85;21124;-75
2021/07/01 08:28:33;;;;;;;10.75;8.98;;;;;;;25.79;66.19;99150.39;1683062;85;21009;-75
2021/07/01 08:31:13;;;;;;;11.35;8.23;;;;;;;25.90;66.43;99152.75;1682828;84;21530;-75
2021/07/01 08:33:44;;;;;;;10.45;9.38;;;;;;;25.98;66.69;99149.56;1682098;85;21601;-73
2021/07/01 08:36:24;;;;;;;11.38;9.88;;;;;;;26.02;66.22;99147.67;1682956;85;21085;-73
2021/07/01 08:38:55;;;;;;;13.50;10.10;;;;;;;26.04;65.76;99138.47;1682997;83;21093;-78
2021/07/01 08:41:28;;;;;;;13.15;10.58;;;;;;;26.05;66.34;99136.70;1682547;85;21076;-75
2021/07/01 08:44:06;;;;;;;16.00;10.08;;;;;;;26.16;66.43;99145.17;1682874;85;21061;-75
2021/07/01 08:46:54;;;;;;;10.82;9.83;;;;;;;26.29;65.62;99149.94;1682766;85;21057;-76
2021/07/01 08:49:32;;;;;;;17.30;10.30;;;;;;;26.33;64.74;99154.35;1654065;85;21011;-74
2021/07/01 08:52:04;;;;;;;11.57;9.65;;;;;;;26.44;64.61;99151.78;1682777;84;21099;-73
2021/07/01 08:54:34;;;;;;;12.82;9.88;;;;;;;26.54;64.48;99143.47;1683274;84;21013;-74
2021/07/01 08:57:04;;;;;;;13.98;9.43;;;;;;;26.59;64.26;99142.58;1640476;87;21017;-74
2021/07/01 08:59:45;;;;;;;15.15;9.00;;;;;;;26.65;63.62;99132.03;1683004;85;21001;-75
2021/07/01 09:02:12;;;;;;;13.48;11.00;;;;;;;26.74;63.58;99132.56;1682426;85;21590;-74
2021/07/01 09:04:57;;;;;;;9.95;8.70;;;;;;;26.84;62.54;99136.08;1682838;85;21138;-76
2021/07/01 09:07:26;;;;;;;11.40;10.30;;;;;;;26.82;62.13;99135.06;1682972;84;21026;-75
2021/07/01 09:09:59;;;;;;;14.98;12.07;;;;;;;26.77;61.87;99135.38;1683006;85;21016;-74
2021/07/01 09:12:28;;;;;;;13.70;9.03;;;;;;;26.81;62.10;99134.84;1640656;87;21069;-76
2021/07/01 09:15:05;;;;;;;18.98;9.83;;;;;;;26.90;62.25;99134.63;1642044;87;21048;-75
2021/07/01 09:17:47;;;;;;;10.65;9.23;;;;;;;26.98;62.01;99133.55;1640500;86;21150;-74
2021/07/01 09:20:12;;;;;;;10.03;9.03;;;;;;;27.04;61.14;99133.45;1640198;87;20985;-73
2021/07/01 09:22:40;;;;;;;10.53;9.43;;;;;;;27.08;60.54;99133.49;1682728;85;21014;-75
2021/07/01 09:25:08;;;;;;;10.30;8.30;;;;;;;27.11;60.66;99133.53;1682678;85;21629;-75
2021/07/01 09:27:37;;;;;;;8.83;7.92;;;;;;;27.19;60.62;99138.00;1682912;85;20969;-76
2021/07/01 09:30:05;;;;;;;9.23;8.20;;;;;;;27.25;59.94;99135.11;1682638;85;21220;-74
2021/07/01 09:32:34;;;;;;;9.78;8.78;;;;;;;27.33;59.35;99134.63;1682585;85;21056;-76
2021/07/01 09:35:00;;;;;;;8.93;8.00;;;;;;;27.45;58.55;99129.44;1682634;85;21084;-75
2021/07/01 09:37:39;;;;;;;11.80;8.63;;;;;;;27.54;58.24;99127.20;1682639;84;20997;-74
2021/07/01 09:40:08;;;;;;;10.88;8.53;;;;;;;27.56;57.69;99127.06;1682031;85;21065;-75
2021/07/01 09:42:37;;;;;;;10.82;8.10;;;;;;;27.58;57.47;99123.90;1682541;85;39080;-74
2021/07/01 09:45:09;;;;;;;13.90;9.25;;;;;;;27.61;57.74;99119.81;1682471;84;21068;-76
2021/07/01 09:47:38;;;;;;;9.85;8.25;;;;;;;27.70;57.27;99112.02;1682855;85;21038;-74
2021/07/01 09:50:07;;;;;;;14.07;12.53;;;;;;;27.86;56.35;99123.45;1682753;85;21022;-74
2021/07/01 09:52:37;;;;;;;10.95;7.75;;;;;;;27.92;53.69;99124.09;1683086;85;21339;-76
2021/07/01 09:55:05;;;;;;;9.98;8.43;;;;;;;27.86;52.47;99128.39;1681366;85;21526;-75
2021/07/01 09:57:36;;;;;;;10.40;7.22;;;;;;;27.83;52.28;99124.98;1684174;84;21495;-74
2021/07/01 10:00:14;;;;;;;10.60;7.78;;;;;;;27.80;52.77;99119.42;1683410;84;21033;-74
2021/07/01 10:02:41;;;;;;;10.65;7.97;;;;;;;27.81;53.26;99127.34;1684990;85;21077;-72
2021/07/01 10:05:26;;;;;;;8.10;6.95;;;;;;;27.89;53.64;99127.62;1683392;85;21010;-75
2021/07/01 10:07:53;;;;;;;12.07;7.40;;;;;;;27.97;53.73;99115.45;1682633;84;21136;-74
2021/07/01 10:10:21;;;;;;;12.95;8.43;;;;;;;28.11;53.93;99117.00;1682678;85;21075;-73
2021/07/01 10:12:51;;;;;;;7.67;6.95;;;;;;;28.13;53.45;99107.75;1682903;85;21116;-75
2021/07/01 10:15:31;;;;;;;8.88;7.72;;;;;;;28.16;53.82;99101.45;1682162;84;21055;-75
2021/07/01 10:18:11;;;;;;;11.63;8.15;;;;;;;28.29;54.34;99106.12;1681184;85;22631;-78
2021/07/01 10:20:40;;;;;;;10.82;6.97;;;;;;;28.40;53.78;99093.16;1680015;84;21823;-81
2021/07/01 10:23:26;;;;;;;12.23;7.33;;;;;;;28.51;52.97;99089.89;1676065;83;20997;-81
2021/07/01 10:25:56;;;;;;;11.68;7.22;;;;;;;28.54;52.07;99075.86;1697605;84;21525;-78
2021/07/01 10:28:24;;;;;;;8.80;7.42;;;;;;;28.50;53.16;99068.92;1698537;84;21055;-83
2021/07/01 10:31:01;;;;;;;9.08;6.50;;;;;;;28.60;52.94;99076.52;1698456;84;21540;-75
2021/07/01 10:33:34;;;;;;;8.50;6.78;;;;;;;28.75;52.24;99072.48;1698198;84;21097;-80
2021/07/01 10:36:02;;;;;;;;;;;;;;;28.93;51.76;99076.14;1701305;84;20974;-81
2021/07/01 10:38:43;;;;;;;12.53;5.97;;;;;;;28.97;48.30;99076.36;1697375;84;20155;-80
2021/07/01 10:41:11;;;;;;;10.10;6.53;;;;;;;28.91;48.12;99066.86;1695923;84;21041;-81
2021/07/01 10:43:43;;;;;;;7.87;6.37;;;;;;;29.00;48.34;99069.27;1696783;84;21060;-74
2021/07/01 10:46:11;;;;;;;10.88;6.33;;;;;;;29.08;48.00;99067.31;1698390;84;21302;-74
2021/07/01 10:48:40;;;;;;;7.78;5.87;;;;;;;29.22;47.96;99071.54;1697353;84;21105;-76
2021/07/01 10:51:12;;;;;;;6.75;5.78;;;;;;;29.22;47.60;99057.69;1697274;84;21761;-82
2021/07/01 10:53:44;;;;;;;11.18;7.20;;;;;;;29.12;47.86;99057.84;1698408;84;21052;-78
2021/07/01 10:56:25;;;;;;;11.08;6.75;;;;;;;29.25;48.44;99068.01;1699106;84;20981;-79
2021/07/01 10:58:58;;;;;;;9.33;5.75;;;;;;;29.22;48.05;99054.91;1698445;84;21535;-84
2021/07/01 11:01:33;;;;;;;6.75;5.30;;;;;;;29.29;48.23;99046.65;1697113;84;21005;-77
2021/07/01 11:04:14;;;;;;;6.45;4.78;;;;;;;29.41;47.04;99057.39;1697185;84;20969;-82
2021/07/01 11:06:57;;;;;;;7.12;4.92;;;;;;;29.48;47.14;99049.70;1698473;84;21130;-80
2021/07/01 11:09:30;;;;;;;8.95;5.08;;;;;;;29.59;46.10;99058.85;1664214;86;21533;-78
2021/07/01 11:12:01;;;;;;;6.47;4.90;;;;;;;29.66;45.64;99054.70;1662688;86;21151;-74
2021/07/01 11:14:41;;;;;;;8.90;5.50;;;;;;;29.75;45.29;99060.06;1664523;86;21537;-73
2021/07/01 11:17:09;;;;;;;5.70;4.28;;;;;;;29.88;45.33;99066.84;1647361;87;21031;-74
2021/07/01 11:19:44;;;;;;;12.78;4.75;;;;;;;29.97;44.95;99060.93;1650104;85;21039;-73
2021/07/01 11:22:11;;;;;;;8.03;4.80;;;;;;;29.98;45.01;99050.01;1647770;87;21063;-76
2021/07/01 11:24:44;;;;;;;8.85;5.50;;;;;;;30.06;44.88;99044.69;1639837;87;21900;-73
2021/07/01 11:27:10;;;;;;;19.37;6.22;;;;;;;30.19;44.86;99040.32;1634853;87;21569;-74
2021/07/01 11:29:46;;;;;;;8.83;6.62;;;;;;;30.25;45.18;99040.13;1635400;87;20965;-75
2021/07/01 11:32:24;;;;;;;7.37;5.10;;;;;;;30.28;44.95;99037.14;1682628;85;20953;-75
2021/07/01 11:34:52;;;;;;;5.53;4.97;;;;;;;30.37;45.40;99035.34;1682359;85;21584;-76
2021/07/01 11:37:39;;;;;;;6.55;4.62;;;;;;;30.51;45.01;99039.52;1682302;84;20930;-74
2021/07/01 11:40:20;;;;;;;9.73;6.03;;;;;;;30.63;44.37;99034.95;1682621;85;21062;-78
2021/07/01 11:42:51;;;;;;;7.67;5.17;;;;;;;30.73;44.69;99037.71;1683084;84;21569;-76